Latest Weather Observations for Darwin

IDD60801

Issued at 5:35 pm CST Monday 28 July 2014 (issued every 30 minutes, with the page automatically refreshed every 10 minutes)

About weather observations | Map of weather stations | Latest weather observations for NT | Other Formats
Station Details ID: 014015 Name: DARWIN AIRPORT Lat: -12.42 Lon: 130.89 Height: 30.4 m
Data from the previous 72 hours. | See also: Recent months at Darwin
Date/Time
CST
Temp
°C
App
Temp
°C
Dew
Point
Rel
Hum
%
Delta-T
°C
Wind Press
QNH
hPa
Press
MSL
hPa
Rain
since 9 am
mm
Dir
 
Spd
km/h
Gust
km/h
Spd
kts
Gust
kts
28/05:30pm 29.7 26.4 14.1 38 9.4 NNE 24 32 13 17 1012.3 - 0.0
28/05:00pm 30.6 27.3 13.9 36 10.1 NNE 24 30 13 16 1012.0 - 0.0
28/04:30pm 32.2 27.6 9.5 24 12.9 N 24 32 13 17 1012.0 - 0.0
28/04:00pm 32.4 28.6 9.0 23 13.2 N 19 28 10 15 1012.1 - 0.0
28/03:30pm 31.2 28.5 15.6 39 9.7 N 24 28 13 15 1012.4 - 0.0
28/03:00pm 32.2 29.1 8.9 23 13.1 E 15 30 8 16 1012.6 1012.4 0.0
28/02:30pm 32.2 29.3 8.0 22 13.4 SE 13 24 7 13 1013.1 - 0.0
28/02:00pm 31.9 26.8 9.2 24 12.8 E 26 32 14 17 1013.6 - 0.0
28/01:30pm 31.0 27.2 9.0 25 12.3 ESE 19 32 10 17 1014.1 - 0.0
28/01:00pm 31.2 26.9 10.9 28 11.7 E 24 37 13 20 1014.6 - 0.0
28/12:30pm 30.2 24.7 10.4 29 11.3 ESE 30 39 16 21 1015.1 - 0.0
28/12:00pm 29.9 24.7 11.6 32 10.6 E 30 39 16 21 1015.6 1015.4 0.0
28/11:30am 29.4 24.4 12.1 34 10.1 E 30 43 16 23 1016.1 - 0.0
28/11:00am 28.6 22.9 11.8 35 9.7 E 33 46 18 25 1016.6 - 0.0
28/10:30am 28.6 23.6 12.3 36 9.5 E 30 43 16 23 1016.7 - 0.0
28/10:00am 27.7 22.8 12.4 38 8.9 E 30 39 16 21 1016.8 - 0.0
28/09:30am 27.1 23.8 12.7 41 8.4 E 22 28 12 15 1016.8 - 0.0
28/09:00am 25.9 27.2 19.2 66 4.3 ESE 11 15 6 8 1016.9 1016.8 0.0
28/08:30am 24.6 26.4 19.5 73 3.3 ESE 9 11 5 6 1016.7 - 0.0
28/08:00am 22.8 24.9 19.3 80 2.2 E 7 9 4 5 1016.6 - 0.0
28/07:30am 20.2 21.7 18.8 92 0.9 ESE 9 11 5 6 1016.4 - 0.0
28/07:00am 19.4 20.9 18.1 92 0.8 SE 7 9 4 5 1016.1 - 0.0
28/06:30am 19.6 20.8 18.3 92 0.8 ESE 9 9 5 5 1015.8 - 0.0
28/06:00am 19.6 20.5 18.3 92 0.8 SE 11 11 6 6 1015.7 1015.5 0.0
28/05:30am 19.9 21.6 18.5 92 0.9 ESE 7 9 4 5 1015.3 - 0.0
28/05:00am 19.9 21.5 18.3 90 1.0 ESE 7 7 4 4 1015.1 - 0.0
28/04:30am 20.4 22.3 18.5 89 1.2 S 6 7 3 4 1014.9 - 0.0
28/04:00am 21.6 23.5 18.9 84 1.7 SSE 7 9 4 5 1014.9 - 0.0
28/03:30am 22.0 23.4 18.7 81 2.1 S 9 11 5 6 1014.9 - 0.0
28/03:00am 21.1 22.8 18.5 85 1.6 SE 7 7 4 4 1015.1 1014.9 0.0
28/02:30am 21.9 23.7 18.7 82 2.0 SSE 7 7 4 4 1015.3 - 0.0
28/02:00am 21.8 23.1 18.4 81 2.1 ESE 9 11 5 6 1015.7 - 0.0
28/01:30am 22.6 24.2 19.1 80 2.2 SE 9 9 5 5 1015.9 - 0.0
28/01:00am 23.0 24.9 19.7 82 2.1 SSE 9 11 5 6 1015.9 - 0.0
28/12:30am 23.7 25.0 19.3 76 2.8 S 11 13 6 7 1016.0 - 0.0
28/12:00am 23.9 25.2 19.4 76 2.9 S 11 13 6 7 1016.0 1015.8 0.0
 
Date/Time
CST
Temp
°C
App
Temp
°C
Dew
Point
Rel
Hum
%
Delta-T
°C
Wind Press
QNH
hPa
Press
MSL
hPa
Rain
since 9 am
mm
Dir
 
Spd
km/h
Gust
km/h
Spd
kts
Gust
kts
27/11:30pm 23.1 24.2 18.1 73 3.1 S 9 11 5 6 1016.0 - 0.0
27/11:00pm 24.2 24.8 17.8 67 4.0 S 11 13 6 7 1016.2 - 0.0
27/10:30pm 24.1 24.6 17.5 66 4.1 SSW 11 13 6 7 1016.1 - 0.0
27/10:00pm 24.3 25.5 17.4 65 4.3 SE 7 9 4 5 1015.8 - 0.0
27/09:30pm 24.2 24.8 17.6 66 4.1 NE 11 13 6 7 1015.5 - 0.0
27/09:00pm 24.5 24.5 17.3 64 4.5 NE 13 15 7 8 1015.2 1015.0 0.0
27/08:30pm 25.0 24.6 17.1 61 4.9 NE 15 17 8 9 1015.0 - 0.0
27/08:00pm 25.4 24.0 16.6 58 5.4 NE 19 26 10 14 1014.6 - 0.0
27/07:30pm 25.6 24.9 17.3 60 5.2 NE 17 26 9 14 1014.1 - 0.0
27/07:00pm 26.2 25.1 17.4 58 5.5 NNE 19 24 10 13 1013.7 - 0.0
27/06:30pm 26.8 24.9 16.8 54 6.2 NNE 22 28 12 15 1013.3 - 0.0
27/06:00pm 27.6 25.3 16.7 51 6.8 NNE 24 32 13 17 1013.0 1012.8 0.0
27/05:30pm 28.5 25.9 16.8 49 7.3 NNE 26 33 14 18 1012.7 - 0.0
27/05:00pm 29.7 26.8 17.0 46 8.0 NNE 28 35 15 19 1012.3 - 0.0
27/04:30pm 30.5 28.4 17.1 44 8.5 NNE 24 33 13 18 1012.3 - 0.0
27/04:00pm 31.4 28.7 16.7 41 9.3 NNE 26 32 14 17 1012.4 - 0.0
27/03:30pm 31.8 28.4 12.6 31 11.4 NNE 22 32 12 17 1012.6 - 0.0
27/03:00pm 32.3 29.6 13.6 32 11.3 ENE 20 32 11 17 1012.9 1012.7 0.0
27/02:30pm 31.9 28.1 12.3 30 11.6 ESE 24 30 13 16 1013.2 - 0.0
27/02:00pm 31.6 28.4 13.0 32 11.1 ENE 22 33 12 18 1013.8 - 0.0
27/01:30pm 31.0 27.5 13.3 34 10.6 E 24 35 13 19 1014.4 - 0.0
27/01:00pm 31.3 27.4 13.3 33 10.8 E 26 35 14 19 1014.9 - 0.0
27/12:30pm 31.0 26.6 13.0 33 10.7 ESE 28 37 15 20 1015.4 - 0.0
27/12:00pm 29.9 26.1 13.7 37 9.7 E 26 33 14 18 1016.1 1015.9 0.0
27/11:30am 29.3 24.9 14.2 39 9.1 E 30 37 16 20 1016.6 - 0.0
27/11:00am 28.8 24.0 13.0 37 9.3 E 30 37 16 20 1017.0 - 0.0
27/10:30am 27.8 24.8 14.9 45 7.8 E 24 32 13 17 1017.4 - 0.0
27/10:00am 27.2 26.5 17.3 54 6.2 ESE 17 26 9 14 1017.6 - 0.0
27/09:30am 25.9 25.5 18.0 61 5.0 SE 17 24 9 13 1017.6 - 0.0
27/09:00am 24.6 25.6 19.5 73 3.3 SE 13 17 7 9 1017.6 1017.5 0.0
27/08:30am 23.4 24.8 20.3 83 2.0 SE 13 17 7 9 1017.4 - 0.0
27/08:00am 21.7 24.0 19.8 89 1.2 E 7 7 4 4 1017.3 - 0.0
27/07:30am 19.0 20.6 18.2 95 0.5 SE 7 9 4 5 1017.0 - 0.0
27/07:00am 19.3 21.0 18.0 92 0.8 SE 6 7 3 4 1016.6 - 0.0
27/06:30am 19.8 21.6 18.3 91 0.9 SE 6 7 3 4 1016.5 - 0.0
27/06:00am 20.4 22.1 19.3 93 0.7 SE 9 11 5 6 1016.2 1016.0 0.0
27/05:30am 21.1 22.7 19.2 89 1.2 SSE 9 11 5 6 1016.1 - 0.0
27/05:00am 21.7 23.4 19.3 86 1.5 SSE 9 11 5 6 1016.0 - 0.0
27/04:30am 21.0 22.5 18.9 88 1.3 E 9 11 5 6 1015.9 - 0.0
27/04:00am 21.0 22.8 18.8 87 1.4 E 7 9 4 5 1016.0 - 0.0
27/03:30am 21.8 23.9 19.4 86 1.5 ESE 7 9 4 5 1016.2 - 0.0
27/03:00am 21.7 25.0 19.0 84 1.7 CALM 0 0 0 0 1016.4 1016.2 0.0
27/02:30am 21.2 22.9 18.1 82 1.9 E 6 9 3 5 1016.7 - 0.0
27/02:00am 21.0 22.6 18.3 84 1.7 ENE 7 7 4 4 1017.1 - 0.0
27/01:30am 20.8 22.2 17.9 83 1.8 ENE 7 9 4 5 1017.3 - 0.0
27/01:00am 20.9 22.4 18.0 83 1.8 E 7 7 4 4 1017.1 - 0.0
27/12:30am 21.7 23.2 18.0 79 2.3 S 7 9 4 5 1017.1 - 0.0
27/12:00am 22.4 23.7 18.4 78 2.5 SE 9 11 5 6 1017.4 1017.3 0.0
 
Date/Time
CST
Temp
°C
App
Temp
°C
Dew
Point
Rel
Hum
%
Delta-T
°C
Wind Press
QNH
hPa
Press
MSL
hPa
Rain
since 9 am
mm
Dir
 
Spd
km/h
Gust
km/h
Spd
kts
Gust
kts
26/11:30pm 22.2 23.3 17.9 76 2.7 SE 9 11 5 6 1017.3 - 0.0
26/11:00pm 23.0 24.4 17.9 73 3.2 S 7 9 4 5 1017.1 - 0.0
26/10:30pm 22.7 24.3 18.2 76 2.8 S 7 9 4 5 1017.2 - 0.0
26/10:00pm 22.6 24.2 17.9 75 2.9 E 6 9 3 5 1017.0 - 0.0
26/09:30pm 23.1 25.8 17.8 72 3.3 CALM 0 0 0 0 1016.8 - 0.0
26/09:00pm 23.9 24.8 17.6 68 3.9 W 9 9 5 5 1016.6 1016.4 0.0
26/08:30pm 24.6 25.5 17.5 64 4.4 NW 9 13 5 7 1016.2 - 0.0
26/08:00pm 24.6 23.9 17.4 64 4.5 NE 17 20 9 11 1015.8 - 0.0
26/07:30pm 25.3 23.9 16.5 58 5.4 NE 19 24 10 13 1015.5 - 0.0
26/07:00pm 26.0 24.6 16.6 56 5.8 NE 19 24 10 13 1015.1 - 0.0
26/06:30pm 26.8 25.6 17.0 55 6.1 N 19 26 10 14 1014.8 - 0.0
26/06:00pm 27.8 26.5 16.9 51 6.8 N 19 24 10 13 1014.4 1014.2 0.0
26/05:30pm 28.3 27.6 18.3 54 6.4 NNW 19 24 10 13 1014.2 - 0.0
26/05:00pm 28.7 27.6 18.6 54 6.5 NNW 22 28 12 15 1013.9 - 0.0
26/04:30pm 28.8 27.0 17.8 51 7.0 NNW 24 30 13 16 1013.7 - 0.0
26/04:00pm 30.5 28.4 16.1 41 9.0 NNW 22 30 12 16 1013.6 - 0.0
26/03:30pm 30.5 28.4 16.1 41 9.0 NW 22 30 12 16 1013.7 - 0.0
26/03:00pm 32.0 29.3 10.2 26 12.5 SSE 15 22 8 12 1013.9 1013.7 0.0
26/02:30pm 31.1 27.9 11.3 29 11.5 E 19 24 10 13 1014.2 - 0.0
26/02:00pm 30.7 28.7 11.4 30 11.2 SSE 13 19 7 10 1014.6 - 0.0
26/01:30pm 30.3 25.6 12.0 32 10.7 ESE 28 35 15 19 1015.1 - 0.0
26/01:00pm 30.5 26.8 12.8 33 10.5 SE 24 43 13 23 1015.5 - 0.0
26/12:30pm 29.3 26.5 13.3 37 9.5 E 20 28 11 15 1016.0 - 0.0
26/12:00pm 29.1 27.0 15.2 42 8.5 E 20 35 11 19 1016.7 1016.5 0.0
26/11:30am 28.1 25.7 16.3 48 7.3 E 24 33 13 18 1017.2 - 0.0
26/11:00am 28.0 26.3 15.8 47 7.5 ENE 19 26 10 14 1017.6 - 0.0
26/10:30am 27.2 26.2 17.9 56 5.9 ENE 20 33 11 18 1017.7 - 0.0
26/10:00am 26.4 25.6 18.0 60 5.3 ENE 19 28 10 15 1017.9 - 0.0
26/09:30am 25.7 24.9 19.3 67 4.1 ENE 22 28 12 15 1017.8 - 0.0
26/09:00am 24.7 25.9 20.7 78 2.6 ENE 15 20 8 11 1017.7 1017.6 0.0
26/08:30am 23.1 24.3 20.6 86 1.6 E 15 19 8 10 1017.5 - 0.0
26/08:00am 21.7 22.9 20.0 90 1.1 E 13 13 7 7 1017.4 - 0.0
26/07:30am 20.7 21.8 19.6 93 0.7 ESE 13 15 7 8 1017.1 - 0.0
26/07:00am 20.7 21.8 19.6 93 0.7 E 13 13 7 7 1016.8 - 0.0
26/06:41am 20.8 22.6 19.5 92 0.8 E 9 11 5 6 1016.7 - 0.0
26/06:30am 20.8 22.7 19.7 93 0.7 E 9 11 5 6 1016.7 - 0.0
26/06:00am 20.5 22.3 19.6 95 0.6 E 9 11 5 6 1016.7 1016.5 0.0
26/05:47am 20.1 21.4 19.3 95 0.5 E 11 11 6 6 1016.7 - 0.0
26/05:30am 20.2 21.9 19.4 95 0.5 E 9 11 5 6 1016.7 - 0.0
26/05:00am 20.4 22.1 19.3 93 0.7 ESE 9 11 5 6 1016.4 - 0.0
26/04:30am 21.5 23.5 19.9 91 1.0 ESE 9 11 5 6 1016.3 - 0.0
26/04:00am 21.9 23.9 20.0 89 1.2 SE 9 13 5 7 1016.4 - 0.0
26/03:30am 20.7 23.0 19.9 95 0.5 ESE 7 9 4 5 1016.2 - 0.0
26/03:00am 21.1 23.5 20.0 93 0.7 ESE 7 9 4 5 1016.3 1016.1 0.0
26/02:30am 21.4 23.5 20.2 93 0.8 ESE 9 9 5 5 1016.6 - 0.0
26/02:00am 22.0 24.4 20.9 93 0.7 W 9 13 5 7 1016.7 - 0.0
26/01:30am 21.2 23.7 20.3 95 0.6 W 7 9 4 5 1016.5 - 0.0
26/01:00am 21.6 23.8 20.4 93 0.8 W 9 11 5 6 1016.5 - 0.0
26/12:30am 21.1 23.9 19.7 92 0.9 W 4 7 2 4 1016.5 - 0.0
26/12:00am 21.1 24.6 19.5 90 1.0 CALM 0 4 0 2 1016.7 1016.5 0.0
 
Date/Time
CST
Temp
°C
App
Temp
°C
Dew
Point
Rel
Hum
%
Delta-T
°C
Wind Press
QNH
hPa
Press
MSL
hPa
Rain
since 9 am
mm
Dir
 
Spd
km/h
Gust
km/h
Spd
kts
Gust
kts
25/11:30pm 22.0 24.1 20.1 89 1.2 W 9 11 5 6 1016.7 - 0.0
25/11:00pm 21.6 25.2 19.7 89 1.2 CALM 0 0 0 0 1016.6 - 0.0
25/10:30pm 22.1 24.6 19.9 87 1.4 W 6 7 3 4 1016.6 - 0.0
25/10:00pm 22.5 25.0 20.3 87 1.4 W 7 7 4 4 1016.5 - 0.0
25/09:30pm 23.1 25.8 20.2 84 1.9 W 6 7 3 4 1016.6 - 0.0
25/09:00pm 23.9 26.5 20.4 81 2.3 WNW 7 9 4 5 1016.3 1016.1 0.0
25/08:30pm 24.6 26.8 20.5 78 2.7 W 9 11 5 6 1015.9 - 0.0
25/08:00pm 24.8 26.2 20.3 76 2.9 W 13 15 7 8 1015.4 - 0.0
25/07:30pm 25.4 26.3 19.3 69 3.9 WSW 13 15 7 8 1015.0 - 0.0
25/07:00pm 25.6 27.2 19.2 67 4.1 NNW 9 11 5 6 1014.4 - 0.0
25/06:30pm 26.3 26.8 18.4 61 5.0 NNE 13 17 7 9 1014.1 - 0.0
25/06:00pm 27.1 26.9 18.5 59 5.5 N 17 20 9 11 1014.0 1013.8 0.0

Other Formats:

Comma delimited format used in spreadsheet applications
http://www.bom.gov.au/fwo/IDD60801/IDD60801.94120.axf

JavaScript Object Notation format (JSON) in row-major order
http://www.bom.gov.au/fwo/IDD60801/IDD60801.94120.json